createdAt,value
2023-11-23T00:02:47.342Z,1.625
2023-11-23T00:07:48.022Z,1.75
2023-11-23T00:12:49.002Z,1.875
2023-11-23T00:17:50.057Z,1.875
2023-11-23T00:22:51.001Z,2
2023-11-23T00:27:52.375Z,1.9375
2023-11-23T00:32:53.261Z,1.9375
2023-11-23T00:37:54.304Z,1.9375
2023-11-23T00:42:55.434Z,1.9375
2023-11-23T00:47:56.347Z,1.875
2023-11-23T00:52:57.348Z,2.125
2023-11-23T00:57:58.363Z,2.25
2023-11-23T01:02:59.373Z,2.125
2023-11-23T01:08:00.147Z,2.25
2023-11-23T01:13:01.347Z,2.375
2023-11-23T01:18:02.216Z,2.5625
2023-11-23T01:23:03.273Z,2.625
2023-11-23T01:28:04.599Z,2.625
2023-11-23T01:33:05.648Z,2.75
2023-11-23T01:38:06.494Z,2.6875
2023-11-23T01:43:07.582Z,2.6875
2023-11-23T01:48:08.559Z,2.8125
2023-11-23T01:53:09.450Z,2.8125
2023-11-23T01:58:10.663Z,2.875
2023-11-23T02:03:11.737Z,2.9375
2023-11-23T02:08:12.747Z,3.1875
2023-11-23T02:13:14.031Z,3.1875
2023-11-23T02:18:15.069Z,3.0625
2023-11-23T02:23:15.917Z,3.0625
2023-11-23T02:28:17.006Z,3.375
2023-11-23T02:33:17.952Z,3.375
2023-11-23T02:38:19.087Z,3.3125
2023-11-23T02:43:20.143Z,3.4375
2023-11-23T02:48:21.259Z,3.4375
2023-11-23T02:53:22.276Z,3.6875
2023-11-23T02:58:23.370Z,3.75
2023-11-23T03:03:24.452Z,3.6875
2023-11-23T03:08:25.565Z,3.875
2023-11-23T03:13:26.755Z,4.0625
2023-11-23T03:18:28.039Z,3.9375
2023-11-23T03:23:28.926Z,4.1875
2023-11-23T03:28:29.927Z,4.1875
2023-11-23T03:33:31.014Z,4.25
2023-11-23T03:38:31.901Z,4.25
2023-11-23T03:43:33.101Z,4.3125
2023-11-23T03:48:34.221Z,4.375
2023-11-23T03:53:34.986Z,4.5
2023-11-23T03:58:36.069Z,4.5
2023-11-23T04:03:37.349Z,4.625
2023-11-23T04:08:38.287Z,4.6875
2023-11-23T04:13:39.511Z,4.75
2023-11-23T04:18:40.552Z,4.875
2023-11-23T04:23:41.655Z,4.875
2023-11-23T04:28:42.742Z,4.875
2023-11-23T04:33:43.929Z,4.9375
2023-11-23T04:38:44.969Z,5.0625
2023-11-23T04:43:46.124Z,4.9375
2023-11-23T04:48:46.998Z,5.125
2023-11-23T04:53:48.029Z,5.125
2023-11-23T04:58:49.258Z,5.1875
2023-11-23T05:03:50.248Z,5.1875
2023-11-23T05:08:51.205Z,5.375
2023-11-23T05:13:52.306Z,5.375
2023-11-23T05:18:53.352Z,5.375
2023-11-23T05:23:54.397Z,5.4375
2023-11-23T05:28:55.356Z,5.5
2023-11-23T05:33:56.411Z,5.6875
2023-11-23T05:38:57.378Z,5.6875
2023-11-23T05:43:58.557Z,5.8125
2023-11-23T05:48:59.576Z,5.9375
2023-11-23T05:54:00.743Z,6
2023-11-23T05:59:01.911Z,6.125
2023-11-23T06:04:03.058Z,6.0625
2023-11-23T06:09:04.025Z,6.1875
2023-11-23T06:14:04.998Z,6.25
2023-11-23T06:19:06.208Z,6.3125
2023-11-23T06:24:07.196Z,6.3125
2023-11-23T06:29:08.324Z,6.375
2023-11-23T06:34:09.410Z,6.375
2023-11-23T06:39:10.579Z,6.375
2023-11-23T06:44:11.447Z,6.3125
2023-11-23T06:49:12.385Z,6.375
2023-11-23T06:54:13.354Z,6.4375
2023-11-23T06:59:14.274Z,6.3125
2023-11-23T07:04:15.294Z,6.3125
2023-11-23T07:09:16.364Z,6.3125
2023-11-23T07:14:17.203Z,6.3125
2023-11-23T07:19:18.123Z,6.3125
2023-11-23T07:24:19.272Z,6.3125
2023-11-23T07:29:20.265Z,6.4375
2023-11-23T07:34:21.439Z,6.5
2023-11-23T07:39:22.431Z,6.5625
2023-11-23T07:44:23.661Z,6.6875
2023-11-23T07:49:24.624Z,6.625
2023-11-23T07:54:25.686Z,6.75
2023-11-23T07:59:26.730Z,6.75
2023-11-23T08:04:27.776Z,6.9375
2023-11-23T08:09:28.826Z,6.9375
2023-11-23T08:14:29.804Z,6.9375
2023-11-23T08:19:30.826Z,6.875
2023-11-23T08:24:31.651Z,6.875
2023-11-23T08:29:32.561Z,6.9375
2023-11-23T08:34:33.707Z,7
2023-11-23T08:39:34.695Z,7.0625
2023-11-23T08:44:35.838Z,7.125
2023-11-23T08:49:36.969Z,7.125
2023-11-23T08:54:37.778Z,7.125
2023-11-23T08:59:38.712Z,7.1875
2023-11-23T09:04:42.874Z,7.1875
2023-11-23T09:09:40.893Z,7.1875
2023-11-23T09:14:46.038Z,7.1875
2023-11-23T09:19:43.501Z,7.25
2023-11-23T09:24:44.404Z,7.25
2023-11-23T09:29:45.486Z,7.1875
2023-11-23T09:34:46.575Z,7.1875
2023-11-23T09:39:47.664Z,7.3125
2023-11-23T09:44:48.675Z,7.3125
2023-11-23T09:49:49.744Z,7.375
2023-11-23T09:54:50.812Z,7.375
2023-11-23T09:59:51.925Z,7.375
2023-11-23T10:04:53.053Z,7.4375
2023-11-23T10:09:54.081Z,7.4375
2023-11-23T10:14:55.480Z,7.4375
2023-11-23T10:19:56.508Z,7.4375
2023-11-23T10:24:57.660Z,7.375
2023-11-23T10:29:58.525Z,7.375
2023-11-23T10:34:59.573Z,7.5
2023-11-23T10:40:00.630Z,7.5625
2023-11-23T10:45:01.830Z,7.625
2023-11-23T10:50:02.864Z,7.625
2023-11-23T10:55:03.795Z,7.625
2023-11-23T11:00:04.803Z,7.5625
2023-11-23T11:05:06.064Z,7.5625
2023-11-23T11:10:07.104Z,7.625
2023-11-23T11:15:08.324Z,7.6875
2023-11-23T11:20:09.345Z,7.6875
2023-11-23T11:25:10.480Z,7.6875
2023-11-23T11:30:11.352Z,7.75
2023-11-23T11:35:12.505Z,7.875
2023-11-23T11:40:13.694Z,7.875
2023-11-23T11:45:14.713Z,7.9375
2023-11-23T11:50:15.944Z,8.1875
2023-11-23T11:55:16.841Z,8.25
2023-11-23T12:00:17.898Z,8.3125
2023-11-23T12:05:18.770Z,8.5625
2023-11-23T12:10:19.828Z,8.8125
2023-11-23T12:15:20.999Z,8.9375
2023-11-23T12:20:22.163Z,9
2023-11-23T12:25:23.330Z,9.0625
2023-11-23T12:30:24.304Z,9.125
2023-11-23T12:35:26.410Z,9.0625
2023-11-23T12:40:26.289Z,9.1875
2023-11-23T12:45:27.413Z,9.1875
2023-11-23T12:50:28.289Z,9.1875
2023-11-23T12:55:29.515Z,9.375
2023-11-23T13:00:30.677Z,9.5
2023-11-23T13:05:31.688Z,9.5625
2023-11-23T13:10:32.878Z,9.75
2023-11-23T13:15:33.904Z,9.8125
2023-11-23T13:20:34.992Z,9.8125
2023-11-23T13:25:36.130Z,9.8125
2023-11-23T13:30:37.382Z,9.9375
2023-11-23T13:35:38.562Z,9.875
2023-11-23T13:40:39.719Z,9.8125
2023-11-23T13:45:40.808Z,9.8125
2023-11-23T13:50:41.954Z,9.8125
2023-11-23T13:55:42.903Z,9.8125
2023-11-23T14:00:43.854Z,9.75
2023-11-23T14:05:44.902Z,9.75
2023-11-23T14:10:46.062Z,9.6875
2023-11-23T14:15:46.943Z,9.625
2023-11-23T14:20:48.276Z,9.625
2023-11-23T14:25:49.167Z,9.625
2023-11-23T14:30:50.220Z,9.75
2023-11-23T14:35:51.359Z,9.75
2023-11-23T14:40:52.674Z,9.625
2023-11-23T14:45:53.787Z,9.5625
2023-11-23T14:50:54.722Z,9.625
2023-11-23T14:55:55.723Z,9.5
2023-11-23T15:00:56.755Z,9.5625
2023-11-23T15:05:57.725Z,9.625
2023-11-23T15:10:58.870Z,9.5625
2023-11-23T15:15:59.825Z,9.5625
2023-11-23T15:21:00.795Z,9.6875
2023-11-23T15:26:01.767Z,9.6875
2023-11-23T15:31:02.794Z,9.8125
2023-11-23T15:36:03.699Z,9.8125
2023-11-23T15:41:04.921Z,9.875
2023-11-23T15:46:06.032Z,10
2023-11-23T15:51:06.858Z,10.0625
2023-11-23T15:56:07.836Z,10.0625
2023-11-23T16:01:08.851Z,10.1875
2023-11-23T16:06:09.727Z,10.1875
2023-11-23T16:11:10.750Z,10.25
2023-11-23T16:16:11.900Z,10.25
2023-11-23T16:21:12.851Z,10.1875
2023-11-23T16:26:13.784Z,10.1875
2023-11-23T16:31:14.550Z,10.3125
2023-11-23T16:36:20.486Z,10.375
2023-11-23T16:41:16.829Z,10.375
2023-11-23T16:46:17.902Z,10.5625
2023-11-23T16:51:19.139Z,10.375
2023-11-23T16:56:20.042Z,10.375
2023-11-23T17:01:21.251Z,10.1875
2023-11-23T17:06:22.432Z,10.1875
2023-11-23T17:11:23.419Z,10.1875
2023-11-23T17:16:24.599Z,10.0625
2023-11-23T17:21:25.745Z,10.125
2023-11-23T17:26:26.647Z,10.125
2023-11-23T17:31:27.334Z,10.3125
2023-11-23T17:36:28.311Z,10.375
2023-11-23T17:41:29.274Z,10.4375
2023-11-23T17:46:30.270Z,10.5625
2023-11-23T17:51:31.232Z,10.5625
2023-11-23T17:56:34.325Z,10.625
2023-11-23T18:01:33.053Z,10.375
2023-11-23T18:06:34.102Z,10.1875
2023-11-23T18:11:34.927Z,10.1875
2023-11-23T18:16:35.919Z,10.125
2023-11-23T18:21:36.813Z,10.125
2023-11-23T18:26:38.064Z,10.1875
2023-11-23T18:31:39.167Z,10.125
2023-11-23T18:36:40.141Z,10.125
2023-11-23T18:41:41.219Z,9.875
2023-11-23T18:46:42.364Z,9.875
2023-11-23T18:51:43.558Z,9.9375
2023-11-23T18:56:44.602Z,10
2023-11-23T19:01:45.581Z,10.125
2023-11-23T19:06:46.370Z,10.125
2023-11-23T19:11:47.325Z,10.125
2023-11-23T19:16:48.391Z,10.125
2023-11-23T19:21:49.297Z,10
2023-11-23T19:26:50.203Z,9.9375
2023-11-23T19:31:51.644Z,10.0625
2023-11-23T19:36:52.574Z,10.125
2023-11-23T19:41:53.394Z,9.3125
2023-11-23T19:46:54.537Z,8.5625
2023-11-23T19:51:55.217Z,8.3125
2023-11-23T19:56:56.053Z,8.1875
2023-11-23T20:01:58.999Z,8.25
2023-11-23T20:06:57.871Z,8.1875
2023-11-23T20:11:58.829Z,8.125
2023-11-23T20:16:59.810Z,8.125
2023-11-23T20:22:00.894Z,8.0625
2023-11-23T20:27:01.844Z,7.9375
2023-11-23T20:32:02.693Z,8
2023-11-23T20:37:03.633Z,7.75
2023-11-23T20:42:04.403Z,7.6875
2023-11-23T20:47:05.230Z,7.625
2023-11-23T20:52:06.158Z,7.6875
2023-11-23T20:57:07.165Z,7.625
2023-11-23T21:02:08.416Z,7.5
2023-11-23T21:07:09.322Z,7.5625
2023-11-23T21:12:14.781Z,7.5625
2023-11-23T21:17:11.631Z,7.5
2023-11-23T21:27:24.615Z,7.625
2023-11-23T21:32:25.531Z,7.5625
2023-11-23T21:37:26.508Z,7.625
2023-11-23T21:42:27.571Z,7.5625
2023-11-23T21:47:28.756Z,8
2023-11-23T21:52:29.599Z,8.0625
2023-11-23T21:57:30.659Z,7.9375
2023-11-23T22:02:31.607Z,7.9375
2023-11-23T22:07:32.477Z,7.9375
2023-11-23T22:12:33.417Z,7.9375
2023-11-23T22:17:34.354Z,7.9375
2023-11-23T22:22:35.377Z,7.75
2023-11-23T22:27:36.454Z,7.75
2023-11-23T22:32:37.236Z,7.625
2023-11-23T22:37:38.149Z,7.5
2023-11-23T22:42:39.081Z,7.625
2023-11-23T22:47:40.172Z,7.5625
2023-11-23T22:52:40.759Z,7.5
2023-11-23T22:57:42.045Z,7.5
2023-11-23T23:02:43.001Z,7.375
2023-11-23T23:07:43.741Z,7.375
2023-11-23T23:12:44.929Z,7.375
2023-11-23T23:17:46.031Z,7.3125
2023-11-23T23:22:47.028Z,7.4375
2023-11-23T23:27:48.029Z,7.5
2023-11-23T23:32:49.067Z,7.4375
2023-11-23T23:37:49.768Z,7.5
2023-11-23T23:42:50.779Z,7.5
2023-11-23T23:47:51.598Z,7.375
2023-11-23T23:52:52.513Z,7.3125
2023-11-23T23:57:53.327Z,7.375
